Tropical Cyclones
[Index]
Main Index Home Page Stock Weather Photos Extreme Storms Discussion Storm News and Storm Chasing Reports Tropical Cyclones / Hurricanes / Typhoons Weather Data and Links Wild Fires / Bushfires Weather Observation Techniques Weather Picture Catalogue Tornado Pictures and Reports Stock Video Footage and DVDs for sale
Season 1972-1973 Tropical Cyclone BELLA Track Map
Season 1972-1973 Summaries: [BoM-AU] [JTWC-AU] [JTWC-SIO] [JTWC-SPAC] [JTWC-SH]
<<- Previous TC | BoM 1972-1973 Season | Next TC ->>

click for intensity scale information  Lat/long Grid: Show Hide

 Date Labels: Show Hide

Bureau of Meteorology Tropical Cyclone Data

Name: BELLA
Number: 507 / 197273_11

19 Mar 1973 23:00 UTC to 25 Mar 1973 19:00 UTC

    date/time    lat    long    hPa   cat  kts
1973-03-19 23    8.9   130.9   1009                     
1973-03-20 11    9.2   132.0   1007                     
1973-03-20 23    9.6   133.0   1006                     
1973-03-21 11    9.9   133.9   1003                     
1973-03-22 00   10.3   134.7   1000                     
1973-03-22 03   10.4   135.0   1000                     
1973-03-22 06   10.6   135.4   1000                     
1973-03-22 09   10.8   135.8   1000                     
1973-03-22 12   11.0   136.0   1000                     
1973-03-22 15   11.4   136.5   1000                     
1973-03-22 18   11.4   136.7    999                     
1973-03-22 21   11.5   136.8    999                     
1973-03-23 00   11.6   136.9    999                     
1973-03-23 03   11.8   136.9    999                     
1973-03-23 06   11.8   137.0    999                     
1973-03-23 09   11.9   137.1    999                     
1973-03-23 12   12.1   137.3    998                     
1973-03-23 15   12.4   137.3    998                     
1973-03-23 18   12.7   137.2    998                     
1973-03-23 21   13.0   137.1    998                     
1973-03-24 00   13.1   137.1    998                     
1973-03-24 03   13.3   137.1    998                     
1973-03-24 06   13.6   136.8    998                     
1973-03-24 09   13.8   136.7    999                     
1973-03-24 12   13.9   136.6   1000                     
1973-03-24 15   14.0   136.6   1002                     
1973-03-24 18   14.1   136.5   1000                     
1973-03-24 21   14.3   136.5   1001                     
1973-03-25 00   14.6   136.5   1002                     
1973-03-25 11   15.5   136.4   1002                     
1973-03-25 19   16.4   136.2   1005                     
Winds are 10-min average.

Tropical cyclone tracks developed by Michael Bath using data from the Bureau of Meteorology and Google Maps.


[Australian Severe Weather index] [Copyright Notice] [Email Contacts] [Search This Site] [Privacy Policy]
Document: tropical_cyclone_bella.htm Updated: 30 May 2013